sensor_id;sensor_type;location;lat;lon;timestamp;temperature;humidity
21592;DHT22;10958;50.892;3.992;2023-08-06T00:00:50;16.50;99.90
21592;DHT22;10958;50.892;3.992;2023-08-06T00:03:17;16.50;99.90
21592;DHT22;10958;50.892;3.992;2023-08-06T00:05:43;16.40;99.90
21592;DHT22;10958;50.892;3.992;2023-08-06T00:08:08;16.50;99.90
21592;DHT22;10958;50.892;3.992;2023-08-06T00:10:34;16.50;99.90
21592;DHT22;10958;50.892;3.992;2023-08-06T00:13:00;16.50;99.90
21592;DHT22;10958;50.892;3.992;2023-08-06T00:15:28;16.50;99.90
21592;DHT22;10958;50.892;3.992;2023-08-06T00:17:56;16.50;99.90
21592;DHT22;10958;50.892;3.992;2023-08-06T00:20:21;16.50;99.90
21592;DHT22;10958;50.892;3.992;2023-08-06T00:22:47;16.50;99.90
21592;DHT22;10958;50.892;3.992;2023-08-06T00:25:13;16.60;99.90
21592;DHT22;10958;50.892;3.992;2023-08-06T00:27:38;16.60;99.90
21592;DHT22;10958;50.892;3.992;2023-08-06T00:30:05;16.80;99.90
21592;DHT22;10958;50.892;3.992;2023-08-06T00:32:33;16.70;99.90
21592;DHT22;10958;50.892;3.992;2023-08-06T00:34:59;16.60;99.90
21592;DHT22;10958;50.892;3.992;2023-08-06T00:37:29;16.60;99.90
21592;DHT22;10958;50.892;3.992;2023-08-06T00:39:55;16.70;99.90
21592;DHT22;10958;50.892;3.992;2023-08-06T00:42:24;16.60;99.90
21592;DHT22;10958;50.892;3.992;2023-08-06T00:44:49;16.60;99.90
21592;DHT22;10958;50.892;3.992;2023-08-06T00:47:17;16.60;99.90
21592;DHT22;10958;50.892;3.992;2023-08-06T00:49:44;16.60;99.90
21592;DHT22;10958;50.892;3.992;2023-08-06T00:52:10;16.60;99.90
21592;DHT22;10958;50.892;3.992;2023-08-06T00:54:36;16.70;99.90
21592;DHT22;10958;50.892;3.992;2023-08-06T00:57:04;16.80;99.90
21592;DHT22;10958;50.892;3.992;2023-08-06T00:59:31;16.70;99.90
21592;DHT22;10958;50.892;3.992;2023-08-06T01:01:58;16.60;99.90
21592;DHT22;10958;50.892;3.992;2023-08-06T01:04:26;16.50;99.90
21592;DHT22;10958;50.892;3.992;2023-08-06T01:15:22;16.20;99.90
21592;DHT22;10958;50.892;3.992;2023-08-06T01:17:50;16.20;99.90
21592;DHT22;10958;50.892;3.992;2023-08-06T01:20:16;16.10;99.90
21592;DHT22;10958;50.892;3.992;2023-08-06T01:22:42;16.10;99.90
21592;DHT22;10958;50.892;3.992;2023-08-06T01:25:10;16.20;99.90
21592;DHT22;10958;50.892;3.992;2023-08-06T01:27:49;16.40;99.90
21592;DHT22;10958;50.892;3.992;2023-08-06T01:30:20;16.30;99.90
21592;DHT22;10958;50.892;3.992;2023-08-06T01:32:50;16.30;99.90
21592;DHT22;10958;50.892;3.992;2023-08-06T01:35:19;16.30;99.90
21592;DHT22;10958;50.892;3.992;2023-08-06T01:37:47;16.30;99.90
21592;DHT22;10958;50.892;3.992;2023-08-06T01:40:14;16.00;99.90
21592;DHT22;10958;50.892;3.992;2023-08-06T01:42:40;16.10;99.90
21592;DHT22;10958;50.892;3.992;2023-08-06T01:45:07;16.10;99.90
21592;DHT22;10958;50.892;3.992;2023-08-06T01:47:33;16.20;99.90
21592;DHT22;10958;50.892;3.992;2023-08-06T01:49:59;16.40;99.90
21592;DHT22;10958;50.892;3.992;2023-08-06T01:52:25;16.20;99.90
21592;DHT22;10958;50.892;3.992;2023-08-06T01:54:51;16.00;99.90
21592;DHT22;10958;50.892;3.992;2023-08-06T01:57:19;15.80;99.90
21592;DHT22;10958;50.892;3.992;2023-08-06T01:59:44;15.50;99.90
21592;DHT22;10958;50.892;3.992;2023-08-06T02:02:10;15.50;99.90
21592;DHT22;10958;50.892;3.992;2023-08-06T02:04:36;15.40;99.90
21592;DHT22;10958;50.892;3.992;2023-08-06T02:07:02;15.30;99.90
21592;DHT22;10958;50.892;3.992;2023-08-06T02:09:28;15.20;99.90
21592;DHT22;10958;50.892;3.992;2023-08-06T02:11:53;15.20;99.90
21592;DHT22;10958;50.892;3.992;2023-08-06T02:14:23;15.20;99.90
21592;DHT22;10958;50.892;3.992;2023-08-06T02:16:51;15.20;99.90
21592;DHT22;10958;50.892;3.992;2023-08-06T02:19:17;15.10;99.90
21592;DHT22;10958;50.892;3.992;2023-08-06T02:21:42;15.20;99.90
21592;DHT22;10958;50.892;3.992;2023-08-06T02:24:08;15.20;99.90
21592;DHT22;10958;50.892;3.992;2023-08-06T02:26:34;15.30;99.90
21592;DHT22;10958;50.892;3.992;2023-08-06T02:29:02;15.20;99.90
21592;DHT22;10958;50.892;3.992;2023-08-06T02:31:29;15.20;99.90
21592;DHT22;10958;50.892;3.992;2023-08-06T02:33:57;15.30;99.90
21592;DHT22;10958;50.892;3.992;2023-08-06T02:36:24;15.30;99.90
21592;DHT22;10958;50.892;3.992;2023-08-06T02:38:50;15.30;99.90
21592;DHT22;10958;50.892;3.992;2023-08-06T02:41:18;15.30;99.90
21592;DHT22;10958;50.892;3.992;2023-08-06T02:43:43;15.30;99.90
21592;DHT22;10958;50.892;3.992;2023-08-06T02:46:09;15.30;99.90
21592;DHT22;10958;50.892;3.992;2023-08-06T02:48:36;15.30;99.90
21592;DHT22;10958;50.892;3.992;2023-08-06T02:51:03;15.20;99.90
21592;DHT22;10958;50.892;3.992;2023-08-06T02:53:29;15.10;99.90
21592;DHT22;10958;50.892;3.992;2023-08-06T02:55:55;15.10;99.90
21592;DHT22;10958;50.892;3.992;2023-08-06T02:58:21;15.00;99.90
21592;DHT22;10958;50.892;3.992;2023-08-06T03:01:03;15.00;99.90
21592;DHT22;10958;50.892;3.992;2023-08-06T03:03:30;15.00;99.90
21592;DHT22;10958;50.892;3.992;2023-08-06T03:05:55;15.00;99.90
21592;DHT22;10958;50.892;3.992;2023-08-06T03:08:24;14.90;99.90
21592;DHT22;10958;50.892;3.992;2023-08-06T03:10:50;14.90;99.90
21592;DHT22;10958;50.892;3.992;2023-08-06T03:13:21;14.90;99.90
21592;DHT22;10958;50.892;3.992;2023-08-06T03:15:58;14.90;99.90
21592;DHT22;10958;50.892;3.992;2023-08-06T03:18:24;14.90;99.90
21592;DHT22;10958;50.892;3.992;2023-08-06T03:20:51;14.90;99.90
21592;DHT22;10958;50.892;3.992;2023-08-06T03:23:18;14.80;99.90
21592;DHT22;10958;50.892;3.992;2023-08-06T03:25:44;14.80;99.90
21592;DHT22;10958;50.892;3.992;2023-08-06T03:28:10;14.70;99.90
21592;DHT22;10958;50.892;3.992;2023-08-06T03:30:35;14.60;99.90
21592;DHT22;10958;50.892;3.992;2023-08-06T03:33:01;14.60;99.90
21592;DHT22;10958;50.892;3.992;2023-08-06T03:35:27;14.50;99.90
21592;DHT22;10958;50.892;3.992;2023-08-06T03:37:52;14.60;99.90
21592;DHT22;10958;50.892;3.992;2023-08-06T03:40:18;14.50;99.90
21592;DHT22;10958;50.892;3.992;2023-08-06T03:42:44;14.50;99.90
21592;DHT22;10958;50.892;3.992;2023-08-06T03:45:10;14.50;99.90
21592;DHT22;10958;50.892;3.992;2023-08-06T03:47:36;14.60;99.90
21592;DHT22;10958;50.892;3.992;2023-08-06T03:50:02;14.50;99.90
21592;DHT22;10958;50.892;3.992;2023-08-06T03:52:28;14.40;99.90
21592;DHT22;10958;50.892;3.992;2023-08-06T03:54:54;14.40;99.90
21592;DHT22;10958;50.892;3.992;2023-08-06T03:57:19;14.30;99.90
21592;DHT22;10958;50.892;3.992;2023-08-06T03:59:45;14.30;99.90
21592;DHT22;10958;50.892;3.992;2023-08-06T04:02:11;14.20;99.90
21592;DHT22;10958;50.892;3.992;2023-08-06T04:04:36;14.10;99.90
21592;DHT22;10958;50.892;3.992;2023-08-06T04:07:03;14.10;99.90
21592;DHT22;10958;50.892;3.992;2023-08-06T04:09:29;14.10;99.90
21592;DHT22;10958;50.892;3.992;2023-08-06T04:11:55;14.10;99.90
21592;DHT22;10958;50.892;3.992;2023-08-06T04:14:21;14.10;99.90
21592;DHT22;10958;50.892;3.992;2023-08-06T04:16:46;14.10;99.90
21592;DHT22;10958;50.892;3.992;2023-08-06T04:19:17;14.10;99.90
21592;DHT22;10958;50.892;3.992;2023-08-06T04:21:43;14.10;99.90
21592;DHT22;10958;50.892;3.992;2023-08-06T04:24:11;14.30;99.90
21592;DHT22;10958;50.892;3.992;2023-08-06T04:26:37;14.30;99.90
21592;DHT22;10958;50.892;3.992;2023-08-06T04:29:02;14.30;99.90
21592;DHT22;10958;50.892;3.992;2023-08-06T04:31:29;14.30;99.90
21592;DHT22;10958;50.892;3.992;2023-08-06T04:33:54;14.30;99.90
21592;DHT22;10958;50.892;3.992;2023-08-06T04:36:20;14.40;99.90
21592;DHT22;10958;50.892;3.992;2023-08-06T04:38:46;14.40;99.90
21592;DHT22;10958;50.892;3.992;2023-08-06T04:41:13;14.40;99.90
21592;DHT22;10958;50.892;3.992;2023-08-06T04:43:41;14.50;99.90
21592;DHT22;10958;50.892;3.992;2023-08-06T04:46:07;14.50;99.90
21592;DHT22;10958;50.892;3.992;2023-08-06T04:48:32;14.60;99.90
21592;DHT22;10958;50.892;3.992;2023-08-06T04:50:58;14.60;99.90
21592;DHT22;10958;50.892;3.992;2023-08-06T04:53:26;14.60;99.90
21592;DHT22;10958;50.892;3.992;2023-08-06T04:55:52;14.50;99.90
21592;DHT22;10958;50.892;3.992;2023-08-06T04:58:17;14.50;99.90
21592;DHT22;10958;50.892;3.992;2023-08-06T05:00:43;14.40;99.90
21592;DHT22;10958;50.892;3.992;2023-08-06T05:03:09;14.40;99.90
21592;DHT22;10958;50.892;3.992;2023-08-06T05:05:34;14.40;99.90
21592;DHT22;10958;50.892;3.992;2023-08-06T05:08:00;14.30;99.90
21592;DHT22;10958;50.892;3.992;2023-08-06T05:10:26;14.40;99.90
21592;DHT22;10958;50.892;3.992;2023-08-06T05:12:55;14.40;99.90
21592;DHT22;10958;50.892;3.992;2023-08-06T05:15:23;14.40;99.90
21592;DHT22;10958;50.892;3.992;2023-08-06T05:17:52;14.40;99.90
21592;DHT22;10958;50.892;3.992;2023-08-06T05:20:19;14.40;99.90
21592;DHT22;10958;50.892;3.992;2023-08-06T05:22:45;14.30;99.90
21592;DHT22;10958;50.892;3.992;2023-08-06T05:25:13;14.30;99.90
21592;DHT22;10958;50.892;3.992;2023-08-06T05:27:39;14.40;99.90
21592;DHT22;10958;50.892;3.992;2023-08-06T05:30:05;14.40;99.90
21592;DHT22;10958;50.892;3.992;2023-08-06T05:32:31;14.40;99.90
21592;DHT22;10958;50.892;3.992;2023-08-06T05:34:56;14.40;99.90
21592;DHT22;10958;50.892;3.992;2023-08-06T05:37:22;14.40;99.90
21592;DHT22;10958;50.892;3.992;2023-08-06T05:39:48;14.50;99.90
21592;DHT22;10958;50.892;3.992;2023-08-06T05:42:13;14.50;99.90
21592;DHT22;10958;50.892;3.992;2023-08-06T05:44:39;14.50;99.90
21592;DHT22;10958;50.892;3.992;2023-08-06T05:47:08;14.60;99.90
21592;DHT22;10958;50.892;3.992;2023-08-06T05:49:34;14.60;99.90
21592;DHT22;10958;50.892;3.992;2023-08-06T05:51:59;14.60;99.90
21592;DHT22;10958;50.892;3.992;2023-08-06T05:54:25;14.60;99.90
21592;DHT22;10958;50.892;3.992;2023-08-06T05:56:51;14.60;99.90
21592;DHT22;10958;50.892;3.992;2023-08-06T05:59:16;14.70;99.90
21592;DHT22;10958;50.892;3.992;2023-08-06T06:01:42;14.80;99.90
21592;DHT22;10958;50.892;3.992;2023-08-06T06:04:07;14.70;99.90
21592;DHT22;10958;50.892;3.992;2023-08-06T06:06:36;14.80;99.90
21592;DHT22;10958;50.892;3.992;2023-08-06T06:09:04;14.80;99.90
21592;DHT22;10958;50.892;3.992;2023-08-06T06:11:32;14.80;99.90
21592;DHT22;10958;50.892;3.992;2023-08-06T06:13:58;14.80;99.90
21592;DHT22;10958;50.892;3.992;2023-08-06T06:16:23;14.70;99.90
21592;DHT22;10958;50.892;3.992;2023-08-06T06:18:49;14.60;99.90
21592;DHT22;10958;50.892;3.992;2023-08-06T06:21:14;14.70;99.90
21592;DHT22;10958;50.892;3.992;2023-08-06T06:23:40;14.70;99.90
21592;DHT22;10958;50.892;3.992;2023-08-06T06:26:06;14.70;99.90
21592;DHT22;10958;50.892;3.992;2023-08-06T06:28:32;14.70;99.90
21592;DHT22;10958;50.892;3.992;2023-08-06T06:31:01;14.70;99.90
21592;DHT22;10958;50.892;3.992;2023-08-06T06:33:27;14.60;99.90
21592;DHT22;10958;50.892;3.992;2023-08-06T06:35:53;14.50;99.90
21592;DHT22;10958;50.892;3.992;2023-08-06T06:38:18;14.40;99.90
21592;DHT22;10958;50.892;3.992;2023-08-06T06:40:46;14.40;99.90
21592;DHT22;10958;50.892;3.992;2023-08-06T06:43:18;14.40;99.90
21592;DHT22;10958;50.892;3.992;2023-08-06T06:45:44;14.50;99.90
21592;DHT22;10958;50.892;3.992;2023-08-06T06:48:10;14.60;99.90
21592;DHT22;10958;50.892;3.992;2023-08-06T06:50:36;14.70;99.90
21592;DHT22;10958;50.892;3.992;2023-08-06T06:53:02;14.70;99.90
21592;DHT22;10958;50.892;3.992;2023-08-06T06:55:30;14.70;99.90
21592;DHT22;10958;50.892;3.992;2023-08-06T06:57:56;14.70;99.90
21592;DHT22;10958;50.892;3.992;2023-08-06T07:00:21;14.60;99.90
21592;DHT22;10958;50.892;3.992;2023-08-06T07:02:47;14.50;99.90
21592;DHT22;10958;50.892;3.992;2023-08-06T07:05:13;14.40;99.90
21592;DHT22;10958;50.892;3.992;2023-08-06T07:07:39;14.30;99.90
21592;DHT22;10958;50.892;3.992;2023-08-06T07:10:06;14.40;99.90
21592;DHT22;10958;50.892;3.992;2023-08-06T07:12:32;14.40;99.90
21592;DHT22;10958;50.892;3.992;2023-08-06T07:15:01;14.50;99.90
21592;DHT22;10958;50.892;3.992;2023-08-06T07:17:26;14.50;99.90
21592;DHT22;10958;50.892;3.992;2023-08-06T07:19:52;14.60;99.90
21592;DHT22;10958;50.892;3.992;2023-08-06T07:22:17;14.70;99.90
21592;DHT22;10958;50.892;3.992;2023-08-06T07:24:43;14.80;99.90
21592;DHT22;10958;50.892;3.992;2023-08-06T07:27:11;14.80;99.90
21592;DHT22;10958;50.892;3.992;2023-08-06T07:29:39;14.90;99.90
21592;DHT22;10958;50.892;3.992;2023-08-06T07:32:06;14.90;99.90
21592;DHT22;10958;50.892;3.992;2023-08-06T07:34:32;15.00;99.90
21592;DHT22;10958;50.892;3.992;2023-08-06T07:37:01;15.20;99.90
21592;DHT22;10958;50.892;3.992;2023-08-06T07:39:27;15.40;99.90
21592;DHT22;10958;50.892;3.992;2023-08-06T07:41:55;15.70;99.90
21592;DHT22;10958;50.892;3.992;2023-08-06T07:44:21;15.90;99.90
21592;DHT22;10958;50.892;3.992;2023-08-06T07:46:47;16.40;99.90
21592;DHT22;10958;50.892;3.992;2023-08-06T07:49:16;16.50;99.90
21592;DHT22;10958;50.892;3.992;2023-08-06T07:51:44;16.40;99.90
21592;DHT22;10958;50.892;3.992;2023-08-06T07:54:11;16.30;99.90
21592;DHT22;10958;50.892;3.992;2023-08-06T07:56:37;16.10;99.90
21592;DHT22;10958;50.892;3.992;2023-08-06T07:59:06;15.70;99.90
21592;DHT22;10958;50.892;3.992;2023-08-06T08:01:32;15.60;99.90
21592;DHT22;10958;50.892;3.992;2023-08-06T08:03:58;15.60;99.90
21592;DHT22;10958;50.892;3.992;2023-08-06T08:06:24;15.50;99.90
21592;DHT22;10958;50.892;3.992;2023-08-06T08:08:50;15.40;99.90
21592;DHT22;10958;50.892;3.992;2023-08-06T08:11:17;15.50;99.90
21592;DHT22;10958;50.892;3.992;2023-08-06T08:13:44;15.50;99.90
21592;DHT22;10958;50.892;3.992;2023-08-06T08:16:10;15.40;99.90
21592;DHT22;10958;50.892;3.992;2023-08-06T08:18:38;15.40;99.90
21592;DHT22;10958;50.892;3.992;2023-08-06T08:21:04;15.50;99.90
21592;DHT22;10958;50.892;3.992;2023-08-06T08:23:32;15.50;99.90
21592;DHT22;10958;50.892;3.992;2023-08-06T08:25:58;15.60;99.90
21592;DHT22;10958;50.892;3.992;2023-08-06T08:28:25;15.80;99.90
21592;DHT22;10958;50.892;3.992;2023-08-06T08:30:51;15.70;99.90
21592;DHT22;10958;50.892;3.992;2023-08-06T08:33:17;15.70;99.90
21592;DHT22;10958;50.892;3.992;2023-08-06T08:35:45;15.70;99.90
21592;DHT22;10958;50.892;3.992;2023-08-06T08:38:11;15.60;99.90
21592;DHT22;10958;50.892;3.992;2023-08-06T08:40:45;15.60;99.90
21592;DHT22;10958;50.892;3.992;2023-08-06T08:43:13;15.50;99.90
21592;DHT22;10958;50.892;3.992;2023-08-06T08:45:40;15.50;99.90
21592;DHT22;10958;50.892;3.992;2023-08-06T08:48:09;15.50;99.90
21592;DHT22;10958;50.892;3.992;2023-08-06T08:50:36;15.80;99.90
21592;DHT22;10958;50.892;3.992;2023-08-06T08:53:03;15.80;99.90
21592;DHT22;10958;50.892;3.992;2023-08-06T08:55:29;15.80;99.90
21592;DHT22;10958;50.892;3.992;2023-08-06T08:57:55;15.60;99.90
21592;DHT22;10958;50.892;3.992;2023-08-06T09:00:23;15.50;99.90
21592;DHT22;10958;50.892;3.992;2023-08-06T09:02:50;15.60;99.90
21592;DHT22;10958;50.892;3.992;2023-08-06T09:05:18;15.70;99.90
21592;DHT22;10958;50.892;3.992;2023-08-06T09:07:51;15.50;99.90
21592;DHT22;10958;50.892;3.992;2023-08-06T09:10:23;15.30;99.90
21592;DHT22;10958;50.892;3.992;2023-08-06T09:13:01;15.20;99.90
21592;DHT22;10958;50.892;3.992;2023-08-06T09:15:35;15.20;99.90
21592;DHT22;10958;50.892;3.992;2023-08-06T09:18:11;15.20;99.90
21592;DHT22;10958;50.892;3.992;2023-08-06T09:20:39;15.40;99.90
21592;DHT22;10958;50.892;3.992;2023-08-06T09:23:08;15.20;99.90
21592;DHT22;10958;50.892;3.992;2023-08-06T09:25:38;15.10;99.90
21592;DHT22;10958;50.892;3.992;2023-08-06T09:28:07;15.10;99.90
21592;DHT22;10958;50.892;3.992;2023-08-06T09:30:37;15.20;99.90
21592;DHT22;10958;50.892;3.992;2023-08-06T09:33:08;15.30;99.90
21592;DHT22;10958;50.892;3.992;2023-08-06T09:35:39;15.60;99.90
21592;DHT22;10958;50.892;3.992;2023-08-06T09:38:09;15.50;99.90
21592;DHT22;10958;50.892;3.992;2023-08-06T09:40:36;15.50;99.90
21592;DHT22;10958;50.892;3.992;2023-08-06T09:43:02;15.40;99.90
21592;DHT22;10958;50.892;3.992;2023-08-06T09:45:31;15.30;99.90
21592;DHT22;10958;50.892;3.992;2023-08-06T09:48:02;15.20;99.90
21592;DHT22;10958;50.892;3.992;2023-08-06T09:50:30;15.10;99.90
21592;DHT22;10958;50.892;3.992;2023-08-06T09:53:02;15.20;99.90
21592;DHT22;10958;50.892;3.992;2023-08-06T09:55:28;15.20;99.90
21592;DHT22;10958;50.892;3.992;2023-08-06T09:57:55;15.00;99.90
21592;DHT22;10958;50.892;3.992;2023-08-06T10:03:41;14.90;99.90
21592;DHT22;10958;50.892;3.992;2023-08-06T10:06:16;14.80;99.90
21592;DHT22;10958;50.892;3.992;2023-08-06T10:08:41;14.80;99.90
21592;DHT22;10958;50.892;3.992;2023-08-06T10:11:08;14.90;99.90
21592;DHT22;10958;50.892;3.992;2023-08-06T10:13:34;15.00;99.90
21592;DHT22;10958;50.892;3.992;2023-08-06T10:16:03;15.00;99.90
21592;DHT22;10958;50.892;3.992;2023-08-06T10:18:29;14.70;99.90
21592;DHT22;10958;50.892;3.992;2023-08-06T10:21:02;14.70;99.90
21592;DHT22;10958;50.892;3.992;2023-08-06T10:23:33;14.70;99.90
21592;DHT22;10958;50.892;3.992;2023-08-06T10:26:00;14.90;99.90
21592;DHT22;10958;50.892;3.992;2023-08-06T10:28:35;15.00;99.90
21592;DHT22;10958;50.892;3.992;2023-08-06T10:31:01;15.40;99.90
21592;DHT22;10958;50.892;3.992;2023-08-06T10:33:48;15.50;99.90
21592;DHT22;10958;50.892;3.992;2023-08-06T10:36:14;15.90;99.90
21592;DHT22;10958;50.892;3.992;2023-08-06T10:38:48;16.20;99.90
21592;DHT22;10958;50.892;3.992;2023-08-06T10:41:27;16.50;99.90
21592;DHT22;10958;50.892;3.992;2023-08-06T10:44:07;16.50;99.90
21592;DHT22;10958;50.892;3.992;2023-08-06T10:46:34;16.70;99.90
21592;DHT22;10958;50.892;3.992;2023-08-06T10:49:04;16.80;99.90
21592;DHT22;10958;50.892;3.992;2023-08-06T10:51:30;16.40;99.90
21592;DHT22;10958;50.892;3.992;2023-08-06T10:53:56;16.30;99.90
21592;DHT22;10958;50.892;3.992;2023-08-06T10:56:24;16.40;99.90
21592;DHT22;10958;50.892;3.992;2023-08-06T10:58:54;16.60;99.90
21592;DHT22;10958;50.892;3.992;2023-08-06T11:01:24;16.60;99.90
21592;DHT22;10958;50.892;3.992;2023-08-06T11:03:51;16.60;99.90
21592;DHT22;10958;50.892;3.992;2023-08-06T11:06:19;16.70;99.90
21592;DHT22;10958;50.892;3.992;2023-08-06T11:08:53;16.70;99.90
21592;DHT22;10958;50.892;3.992;2023-08-06T11:11:24;16.60;99.90
21592;DHT22;10958;50.892;3.992;2023-08-06T11:13:52;16.60;99.90
21592;DHT22;10958;50.892;3.992;2023-08-06T11:16:23;16.30;99.90
21592;DHT22;10958;50.892;3.992;2023-08-06T11:18:52;16.00;99.90
21592;DHT22;10958;50.892;3.992;2023-08-06T11:21:26;15.80;99.90
21592;DHT22;10958;50.892;3.992;2023-08-06T11:23:53;15.60;99.90
21592;DHT22;10958;50.892;3.992;2023-08-06T11:26:20;15.60;99.90
21592;DHT22;10958;50.892;3.992;2023-08-06T11:28:48;15.70;99.90
21592;DHT22;10958;50.892;3.992;2023-08-06T11:31:24;15.50;99.90
21592;DHT22;10958;50.892;3.992;2023-08-06T11:33:53;15.20;99.90
21592;DHT22;10958;50.892;3.992;2023-08-06T11:36:28;15.10;99.90
21592;DHT22;10958;50.892;3.992;2023-08-06T11:38:55;15.00;99.90
21592;DHT22;10958;50.892;3.992;2023-08-06T11:41:21;14.90;99.90
21592;DHT22;10958;50.892;3.992;2023-08-06T11:43:47;14.80;99.90
21592;DHT22;10958;50.892;3.992;2023-08-06T11:46:14;14.70;99.90
21592;DHT22;10958;50.892;3.992;2023-08-06T11:48:56;14.70;99.90
21592;DHT22;10958;50.892;3.992;2023-08-06T11:51:26;14.70;99.90
21592;DHT22;10958;50.892;3.992;2023-08-06T11:53:58;14.80;99.90
21592;DHT22;10958;50.892;3.992;2023-08-06T11:56:25;15.10;99.90
21592;DHT22;10958;50.892;3.992;2023-08-06T11:58:52;15.30;99.90
21592;DHT22;10958;50.892;3.992;2023-08-06T12:01:26;15.60;99.90
21592;DHT22;10958;50.892;3.992;2023-08-06T12:04:03;15.70;99.90
21592;DHT22;10958;50.892;3.992;2023-08-06T12:06:41;15.70;99.90
21592;DHT22;10958;50.892;3.992;2023-08-06T12:09:07;15.90;99.90
21592;DHT22;10958;50.892;3.992;2023-08-06T12:11:32;16.30;99.90
21592;DHT22;10958;50.892;3.992;2023-08-06T12:13:59;16.60;99.90
21592;DHT22;10958;50.892;3.992;2023-08-06T12:16:25;16.70;99.90
21592;DHT22;10958;50.892;3.992;2023-08-06T12:18:52;16.90;99.90
21592;DHT22;10958;50.892;3.992;2023-08-06T12:21:20;16.60;99.90
21592;DHT22;10958;50.892;3.992;2023-08-06T12:23:45;16.20;99.90
21592;DHT22;10958;50.892;3.992;2023-08-06T12:26:15;15.80;99.90
21592;DHT22;10958;50.892;3.992;2023-08-06T12:28:41;15.60;99.90
21592;DHT22;10958;50.892;3.992;2023-08-06T12:31:10;15.60;99.90
21592;DHT22;10958;50.892;3.992;2023-08-06T12:33:35;15.60;99.90
21592;DHT22;10958;50.892;3.992;2023-08-06T12:36:01;15.80;99.90
21592;DHT22;10958;50.892;3.992;2023-08-06T12:38:27;16.00;99.90
21592;DHT22;10958;50.892;3.992;2023-08-06T12:40:53;16.10;99.90
21592;DHT22;10958;50.892;3.992;2023-08-06T12:43:19;16.20;99.90
21592;DHT22;10958;50.892;3.992;2023-08-06T12:45:45;16.10;99.90
21592;DHT22;10958;50.892;3.992;2023-08-06T12:48:11;16.00;99.90
21592;DHT22;10958;50.892;3.992;2023-08-06T12:50:37;16.30;99.90
21592;DHT22;10958;50.892;3.992;2023-08-06T12:53:06;16.40;99.90
21592;DHT22;10958;50.892;3.992;2023-08-06T12:55:31;16.40;99.90
21592;DHT22;10958;50.892;3.992;2023-08-06T12:57:57;16.20;99.90
21592;DHT22;10958;50.892;3.992;2023-08-06T13:00:23;16.30;99.90
21592;DHT22;10958;50.892;3.992;2023-08-06T13:02:49;16.40;99.90
21592;DHT22;10958;50.892;3.992;2023-08-06T13:05:15;16.70;99.90
21592;DHT22;10958;50.892;3.992;2023-08-06T13:07:43;16.70;99.90
21592;DHT22;10958;50.892;3.992;2023-08-06T13:10:09;17.00;99.90
21592;DHT22;10958;50.892;3.992;2023-08-06T13:12:35;17.10;99.90
21592;DHT22;10958;50.892;3.992;2023-08-06T13:15:03;17.20;99.90
21592;DHT22;10958;50.892;3.992;2023-08-06T13:17:29;17.10;99.90
21592;DHT22;10958;50.892;3.992;2023-08-06T13:19:55;17.10;99.90
21592;DHT22;10958;50.892;3.992;2023-08-06T13:22:20;16.70;99.90
21592;DHT22;10958;50.892;3.992;2023-08-06T13:24:46;16.60;99.90
21592;DHT22;10958;50.892;3.992;2023-08-06T13:27:12;16.60;99.90
21592;DHT22;10958;50.892;3.992;2023-08-06T13:29:38;16.40;99.90
21592;DHT22;10958;50.892;3.992;2023-08-06T13:32:04;16.50;99.90
21592;DHT22;10958;50.892;3.992;2023-08-06T13:34:30;16.70;99.90
21592;DHT22;10958;50.892;3.992;2023-08-06T13:36:56;16.60;99.90
21592;DHT22;10958;50.892;3.992;2023-08-06T13:39:24;16.30;99.90
21592;DHT22;10958;50.892;3.992;2023-08-06T13:41:52;16.10;99.90
21592;DHT22;10958;50.892;3.992;2023-08-06T13:44:18;16.00;99.90
21592;DHT22;10958;50.892;3.992;2023-08-06T13:46:47;16.00;99.90
21592;DHT22;10958;50.892;3.992;2023-08-06T13:49:13;15.90;99.90
21592;DHT22;10958;50.892;3.992;2023-08-06T13:51:39;15.90;99.90
21592;DHT22;10958;50.892;3.992;2023-08-06T13:54:08;16.00;99.90
21592;DHT22;10958;50.892;3.992;2023-08-06T13:56:34;16.00;99.90
21592;DHT22;10958;50.892;3.992;2023-08-06T13:59:01;16.00;99.90
21592;DHT22;10958;50.892;3.992;2023-08-06T14:01:26;16.00;99.90
21592;DHT22;10958;50.892;3.992;2023-08-06T14:03:53;16.10;99.90
21592;DHT22;10958;50.892;3.992;2023-08-06T14:06:19;16.30;99.90
21592;DHT22;10958;50.892;3.992;2023-08-06T14:08:45;16.30;99.90
21592;DHT22;10958;50.892;3.992;2023-08-06T14:11:11;16.30;99.90
21592;DHT22;10958;50.892;3.992;2023-08-06T14:13:37;16.30;99.90
21592;DHT22;10958;50.892;3.992;2023-08-06T14:16:05;16.30;99.90
21592;DHT22;10958;50.892;3.992;2023-08-06T14:18:31;16.40;99.90
21592;DHT22;10958;50.892;3.992;2023-08-06T14:20:59;16.50;99.90
21592;DHT22;10958;50.892;3.992;2023-08-06T14:23:28;16.50;99.90
21592;DHT22;10958;50.892;3.992;2023-08-06T14:25:54;16.60;99.90
21592;DHT22;10958;50.892;3.992;2023-08-06T14:28:20;16.80;99.90
21592;DHT22;10958;50.892;3.992;2023-08-06T14:30:46;16.90;99.90
21592;DHT22;10958;50.892;3.992;2023-08-06T14:33:11;16.90;99.90
21592;DHT22;10958;50.892;3.992;2023-08-06T14:35:37;17.10;99.90
21592;DHT22;10958;50.892;3.992;2023-08-06T14:38:05;17.20;99.90
21592;DHT22;10958;50.892;3.992;2023-08-06T14:40:31;17.40;99.90
21592;DHT22;10958;50.892;3.992;2023-08-06T14:43:05;17.50;99.90
21592;DHT22;10958;50.892;3.992;2023-08-06T14:45:35;17.60;99.90
21592;DHT22;10958;50.892;3.992;2023-08-06T14:48:09;17.60;99.90
21592;DHT22;10958;50.892;3.992;2023-08-06T14:50:37;17.70;99.90
21592;DHT22;10958;50.892;3.992;2023-08-06T14:53:04;18.00;99.90
21592;DHT22;10958;50.892;3.992;2023-08-06T14:55:31;18.30;99.90
21592;DHT22;10958;50.892;3.992;2023-08-06T14:57:57;18.30;99.90
21592;DHT22;10958;50.892;3.992;2023-08-06T15:00:23;18.40;99.90
21592;DHT22;10958;50.892;3.992;2023-08-06T15:02:49;18.20;99.90
21592;DHT22;10958;50.892;3.992;2023-08-06T15:05:24;18.00;99.90
21592;DHT22;10958;50.892;3.992;2023-08-06T15:07:52;18.20;99.90
21592;DHT22;10958;50.892;3.992;2023-08-06T15:10:18;18.10;99.90
21592;DHT22;10958;50.892;3.992;2023-08-06T15:12:45;18.00;99.90
21592;DHT22;10958;50.892;3.992;2023-08-06T15:15:11;17.90;99.90
21592;DHT22;10958;50.892;3.992;2023-08-06T15:17:37;17.80;99.90
21592;DHT22;10958;50.892;3.992;2023-08-06T15:20:04;17.60;99.90
21592;DHT22;10958;50.892;3.992;2023-08-06T15:22:35;17.40;99.90
21592;DHT22;10958;50.892;3.992;2023-08-06T15:25:01;17.30;99.90
21592;DHT22;10958;50.892;3.992;2023-08-06T15:27:27;17.30;99.90
21592;DHT22;10958;50.892;3.992;2023-08-06T15:29:53;17.40;99.90
21592;DHT22;10958;50.892;3.992;2023-08-06T15:32:21;17.40;99.90
21592;DHT22;10958;50.892;3.992;2023-08-06T15:34:48;17.40;99.90
21592;DHT22;10958;50.892;3.992;2023-08-06T15:37:14;17.60;99.90
21592;DHT22;10958;50.892;3.992;2023-08-06T15:39:51;17.80;99.90
21592;DHT22;10958;50.892;3.992;2023-08-06T15:42:20;17.70;99.90